Nearby METAR Reports

 

K6I2 - Springfield, Kentucky, USA
Distance from station: SSE 22mi, 36km
Updated: 05/16/2022 10:35am
Partly cloudy
Partly cloudy
 Wind from NNW
Wind: NNW 10 mph , 17 km/h
Temperature: 64°F , 18°C
Dew Point: 57°F , 14°C
Humidity: 78%
Barometer: 29.97 inHg , 1014.9 hPa
Clouds: Partly cloudy
Visibility: 10 miles , 16 km
Cloud details: Few Clouds 2300 ft
Partly cloudy 3100 ft
2022/05/16 14:35 K6I2 161435Z AUTO 34009KT 10SM FEW023 SCT031 18/14 A2997 RMK AO2
KLOU - Louisville/Bowmn, Kentucky, USA
Distance from station: NW 25mi, 40km
Updated: 05/16/2022 10:53am
Clear
Clear
 Wind from varies
Wind: varies 5 mph , 7 km/h
Temperature: 68°F , 20°C
Dew Point: 54°F , 12°C
Humidity: 60%
Barometer: 29.95 inHg , 1014.2 hPa
Clouds: Clear
Visibility: 10 miles , 16 km
2022/05/16 14:53 KLOU 161453Z VRB04KT 10SM CLR 20/12 A2995 RMK AO2 SLP139 T02000117 510
 
KSDF - Louisville, Kentucky, USA
Distance from station: NW 25mi, 41km
Updated: 05/16/2022 9:56am
Partly cloudy
Partly cloudy
 Wind from N
Wind: N 15 mph , 24 km/h, Gust: 23 mph , 37 km/h
Temperature: 66°F , 19°C
Dew Point: 54°F , 12°C
Humidity: 64%
Barometer: 29.94 inHg , 1013.9 hPa
Clouds: Partly cloudy
Visibility: 10 miles , 16 km
Cloud details: Partly cloudy 3000 ft
2022/05/16 13:56 KSDF 161356Z 36013G20KT 10SM SCT030 19/12 A2994 RMK AO2 SLP134 T01890117
KEKX - Elizabeth, Kentucky, USA
Distance from station: WSW 30mi, 48km
Updated: 05/16/2022 10:35am
Partly cloudy
Partly cloudy
 Wind from N
Wind: N 5 mph , 7 km/h
Temperature: 64°F , 18°C
Dew Point: 54°F , 12°C
Humidity: 68%
Barometer: 29.97 inHg , 1014.9 hPa
Clouds: Partly cloudy
Visibility: 10 miles , 16 km
Cloud details: Partly cloudy 2600 ft
2022/05/16 14:35 KEKX 161435Z AUTO 36004KT 10SM SCT026 18/12 A2997 RMK AO2 T01810118
 
KFFT - Frankfort, Kentucky, USA
Distance from station: NE 32mi, 51km
Updated: 05/16/2022 10:53am
Partly cloudy
Partly cloudy
 Wind from NW
Wind: NW 10 mph , 17 km/h
Temperature: 64°F , 18°C
Dew Point: 54°F , 12°C
Humidity: 68%
Barometer: 29.94 inHg , 1013.9 hPa
Clouds: Partly cloudy
Visibility: 10 miles , 16 km
Cloud details: Few Clouds 2300 ft
Partly cloudy 2800 ft
2022/05/16 14:53 KFFT 161453Z AUTO 32009KT 10SM FEW023 SCT028 18/12 A2994 RMK AO2 SLP
KFTK - Fort Knox/Godman, Kentucky, USA
Distance from station: W 32mi, 51km
Updated: 05/16/2022 9:56am
Few Clouds
Few Clouds
 Wind from NW
Wind: NW 6 mph , 9 km/h
Temperature: 63°F , 17°C
Dew Point: 57°F , 14°C
Humidity: 83%
Barometer: 29.95 inHg , 1014.2 hPa
Clouds: Few Clouds
Visibility: 10 miles , 16 km
Cloud details: Few Clouds 2100 ft
2022/05/16 13:56 KFTK 161356Z AUTO 31005KT 10SM FEW021 17/14 A2995 RMK AO2 SLP141 T01650136 $
 
KDVK - Danville, Kentucky, USA
Distance from station: SE 42mi, 67km
Updated: 05/16/2022 10:35am
Mostly cloudy
Mostly cloudy
 Wind from NNW
Wind: NNW 13 mph , 20 km/h, Gust: 16 mph , 26 km/h
Temperature: 64°F , 18°C
Dew Point: 55°F , 13°C
Humidity: 73%
Barometer: 29.96 inHg , 1014.6 hPa
Clouds: Mostly cloudy
Visibility: 10 miles , 16 km
Cloud details: Partly cloudy 1800 ft
Mostly cloudy 2500 ft
Mostly cloudy 3700 ft
2022/05/16 14:35 KDVK 161435Z AUTO 34011G14KT 10SM SCT018 BKN025 BKN037 18/13 A2996 RMK AO2
KLEX - Lexington, Kentucky, USA
Distance from station: E 43mi, 70km
Updated: 05/16/2022 10:01am
Overcast
Overcast
 Wind from NW
Wind: NW 9 mph , 15 km/h
Temperature: 63°F , 17°C
Dew Point: 55°F , 13°C
Humidity: 77%
Barometer: 29.93 inHg , 1013.5 hPa
Clouds: Overcast
Visibility: 10 miles , 16 km
Cloud details: Partly cloudy 1500 ft
Overcast 2300 ft
2022/05/16 14:01 KLEX 161401Z 32008KT 10SM SCT015 OVC023 17/13 A2993 RMK AO2 T01670128